Salt Lake City, Utah
Traffic Map
Current Weather Conditions
Salt Lake City, Utah
Few Clouds
Few Clouds
61°
Feels Like: 61°
Wind Chill: 61° Ceiling: Unl
Heat Index: 61° Visibility: 10mi
Dew Point: 29° Wind: 0mph
Humidity: 30% Direction: ° ()
Pressure: 30.13in Gusts: 0mph
Raw Report DataKSLC 220254Z 00000KT 10SM FEW090 16/M02 A3013 RMK AO2 SLP176 T01611017 55000
Traffic Incident Summary
Active as of:
Severity:
Category:
InformationThere was an issue retrieving the traffic information for this location. Please try a different location or try again shortly.
Advertisements